createdAt,value
2022-08-24T00:00:10.592Z,3.28
2022-08-24T00:02:38.303Z,3.85
2022-08-24T00:05:06.349Z,1.50
2022-08-24T00:07:34.393Z,2.33
2022-08-24T00:10:02.200Z,2.08
2022-08-24T00:12:31.430Z,1.40
2022-08-24T00:14:59.410Z,1.88
2022-08-24T00:17:26.954Z,1.65
2022-08-24T00:19:54.889Z,1.70
2022-08-24T00:22:22.634Z,2.15
2022-08-24T00:24:50.110Z,2.30
2022-08-24T00:27:17.659Z,1.50
2022-08-24T00:29:46.660Z,1.92
2022-08-24T00:32:17.755Z,3.63
2022-08-24T00:34:58.107Z,1.95
2022-08-24T00:37:26.663Z,2.55
2022-08-24T00:39:54.579Z,1.63
2022-08-24T00:42:22.190Z,2.28
2022-08-24T00:44:51.108Z,2.03
2022-08-24T00:47:21.474Z,2.30
2022-08-24T00:49:55.064Z,2.00
2022-08-24T00:52:25.391Z,1.75
2022-08-24T00:54:54.584Z,3.35
2022-08-24T00:57:23.753Z,2.50
2022-08-24T00:59:55.433Z,2.50
2022-08-24T01:02:25.763Z,2.40
2022-08-24T01:04:55.405Z,2.40
2022-08-24T01:07:23.852Z,2.00
2022-08-24T01:09:52.274Z,2.05
2022-08-24T01:12:19.997Z,2.22
2022-08-24T01:14:47.775Z,2.08
2022-08-24T01:17:38.753Z,1.80
2022-08-24T01:20:08.014Z,2.33
2022-08-24T01:22:43.490Z,2.20
2022-08-24T01:25:12.338Z,2.25
2022-08-24T01:27:41.468Z,2.10
2022-08-24T01:30:13.740Z,3.95
2022-08-24T01:32:41.660Z,2.33
2022-08-24T01:35:09.806Z,2.53
2022-08-24T01:37:37.760Z,2.30
2022-08-24T01:40:08.854Z,2.50
2022-08-24T01:42:37.752Z,2.08
2022-08-24T01:45:06.983Z,3.13
2022-08-24T01:47:34.543Z,2.58
2022-08-24T01:50:02.559Z,4.10
2022-08-24T01:52:54.741Z,2.67
2022-08-24T01:55:18.976Z,3.03
2022-08-24T01:57:51.280Z,2.42
2022-08-24T02:00:18.877Z,3.03
2022-08-24T02:02:46.819Z,2.80
2022-08-24T02:05:16.569Z,4.33
2022-08-24T02:07:44.147Z,3.33
2022-08-24T02:10:12.495Z,3.05
2022-08-24T02:12:40.963Z,5.20
2022-08-24T02:15:11.448Z,4.43
2022-08-24T02:17:39.026Z,2.75
2022-08-24T02:20:07.044Z,3.38
2022-08-24T02:22:34.746Z,2.55
2022-08-24T02:25:02.287Z,3.75
2022-08-24T02:27:30.108Z,4.03
2022-08-24T02:29:57.596Z,2.60
2022-08-24T02:32:26.478Z,2.47
2022-08-24T02:34:54.773Z,2.93
2022-08-24T02:37:22.552Z,2.40
2022-08-24T02:39:50.113Z,3.03
2022-08-24T02:42:17.655Z,3.20
2022-08-24T02:44:45.225Z,2.63
2022-08-24T02:47:12.738Z,3.10
2022-08-24T02:49:41.637Z,3.43
2022-08-24T02:52:09.142Z,2.90
2022-08-24T02:54:36.917Z,4.57
2022-08-24T02:57:04.839Z,3.97
2022-08-24T02:59:32.344Z,3.33
2022-08-24T03:01:59.860Z,3.10
2022-08-24T03:04:27.415Z,4.73
2022-08-24T03:06:56.360Z,2.77
2022-08-24T03:09:23.856Z,6.50
2022-08-24T03:11:51.653Z,2.77
2022-08-24T03:14:19.331Z,5.23
2022-08-24T03:16:46.882Z,3.60
2022-08-24T03:19:15.248Z,3.13
2022-08-24T03:21:42.806Z,3.10
2022-08-24T03:24:11.676Z,3.43
2022-08-24T03:26:39.962Z,3.57
2022-08-24T03:29:12.168Z,3.10
2022-08-24T03:31:39.664Z,4.07
2022-08-24T03:34:07.164Z,4.17
2022-08-24T03:36:34.595Z,3.70
2022-08-24T03:39:02.148Z,4.67
2022-08-24T03:41:30.996Z,3.87
2022-08-24T03:44:03.109Z,3.87
2022-08-24T03:46:32.323Z,4.17
2022-08-24T03:49:00.073Z,4.23
2022-08-24T03:51:28.965Z,3.83
2022-08-24T03:53:56.943Z,4.00
2022-08-24T03:56:24.527Z,3.83
2022-08-24T03:58:53.778Z,3.93
2022-08-24T04:01:21.779Z,5.33
2022-08-24T04:03:50.027Z,4.13
2022-08-24T04:06:19.242Z,3.93
2022-08-24T04:08:46.827Z,3.67
2022-08-24T04:11:15.256Z,4.43
2022-08-24T04:13:42.822Z,6.03
2022-08-24T04:16:12.857Z,4.27
2022-08-24T04:18:40.983Z,4.63
2022-08-24T04:21:15.824Z,5.27
2022-08-24T04:23:47.690Z,4.60
2022-08-24T04:26:16.321Z,4.60
2022-08-24T04:28:43.854Z,4.97
2022-08-24T04:31:15.039Z,4.90
2022-08-24T04:33:42.762Z,5.00
2022-08-24T04:36:11.366Z,5.57
2022-08-24T04:38:39.149Z,4.70
2022-08-24T04:41:07.386Z,4.57
2022-08-24T04:43:34.990Z,5.73
2022-08-24T04:46:05.793Z,4.93
2022-08-24T04:48:35.175Z,6.60
2022-08-24T04:51:02.869Z,5.43
2022-08-24T04:53:31.327Z,5.10
2022-08-24T04:55:59.393Z,5.80
2022-08-24T04:58:27.251Z,4.90
2022-08-24T05:00:54.902Z,5.73
2022-08-24T05:03:22.627Z,4.73
2022-08-24T05:05:51.798Z,9.60
2022-08-24T05:08:20.598Z,5.13
2022-08-24T05:10:50.519Z,5.83
2022-08-24T05:13:19.732Z,5.83
2022-08-24T05:15:48.083Z,6.43
2022-08-24T05:18:15.958Z,5.77
2022-08-24T05:20:45.180Z,5.03
2022-08-24T05:23:14.431Z,5.13
2022-08-24T05:25:42.339Z,4.57
2022-08-24T05:28:10.245Z,5.23
2022-08-24T05:30:42.351Z,5.03
2022-08-24T05:33:10.331Z,4.53
2022-08-24T05:35:38.621Z,5.27
2022-08-24T05:38:09.519Z,5.63
2022-08-24T05:40:38.388Z,4.97
2022-08-24T05:43:05.959Z,4.87
2022-08-24T05:45:33.410Z,5.13
2022-08-24T05:48:00.879Z,4.90
2022-08-24T05:50:28.347Z,5.83
2022-08-24T05:52:55.841Z,5.27
2022-08-24T05:55:23.356Z,6.23
2022-08-24T05:57:52.603Z,8.93
2022-08-24T06:00:20.343Z,5.50
2022-08-24T06:02:47.893Z,5.53
2022-08-24T06:05:15.466Z,7.00
2022-08-24T06:07:43.307Z,5.50
2022-08-24T06:10:35.336Z,5.07
2022-08-24T06:13:00.379Z,5.13
2022-08-24T06:15:27.915Z,5.77
2022-08-24T06:17:55.433Z,5.23
2022-08-24T06:20:23.004Z,7.53
2022-08-24T06:22:50.679Z,5.70
2022-08-24T06:25:35.709Z,5.95
2022-08-24T06:28:04.877Z,5.47
2022-08-24T06:30:32.422Z,5.70
2022-08-24T06:33:00.353Z,9.77
2022-08-24T06:35:27.938Z,6.53
2022-08-24T06:37:56.953Z,5.53
2022-08-24T06:40:25.858Z,5.63
2022-08-24T06:42:53.593Z,4.97
2022-08-24T06:45:22.782Z,6.22
2022-08-24T06:47:50.329Z,4.22
2022-08-24T06:50:18.518Z,7.80
2022-08-24T06:52:49.474Z,4.90
2022-08-24T06:55:16.992Z,3.38
2022-08-24T06:57:46.176Z,3.90
2022-08-24T07:00:31.095Z,4.30
2022-08-24T07:02:58.733Z,4.18
2022-08-24T07:05:26.354Z,3.25
2022-08-24T07:07:54.220Z,4.47
2022-08-24T07:10:23.061Z,5.93
2022-08-24T07:12:53.204Z,2.83
2022-08-24T07:15:20.965Z,3.67
2022-08-24T07:17:51.267Z,3.97
2022-08-24T07:20:19.151Z,2.22
2022-08-24T07:22:47.025Z,2.83
2022-08-24T07:25:14.579Z,2.53
2022-08-24T07:27:42.132Z,2.38
2022-08-24T07:30:26.379Z,3.35
2022-08-24T07:32:56.748Z,1.70
2022-08-24T07:35:24.801Z,4.55
2022-08-24T07:37:52.846Z,2.45
2022-08-24T07:40:22.162Z,6.22
2022-08-24T07:42:50.267Z,3.47
2022-08-24T07:45:18.427Z,2.63
2022-08-24T07:47:54.590Z,3.70
2022-08-24T07:50:24.715Z,1.50
2022-08-24T07:52:52.889Z,2.05
2022-08-24T07:55:20.649Z,2.33
2022-08-24T07:57:48.459Z,2.65
2022-08-24T08:00:19.537Z,2.55
2022-08-24T08:02:48.024Z,1.42
2022-08-24T08:05:16.356Z,2.15
2022-08-24T08:07:46.773Z,1.85
2022-08-24T08:10:16.548Z,1.67
2022-08-24T08:12:44.116Z,2.70
2022-08-24T08:15:12.297Z,2.35
2022-08-24T08:17:40.072Z,2.53
2022-08-24T08:20:09.215Z,2.30
2022-08-24T08:22:55.320Z,3.97
2022-08-24T08:25:24.339Z,1.92
2022-08-24T08:27:52.062Z,1.60
2022-08-24T08:30:19.673Z,4.13
2022-08-24T08:32:47.360Z,1.48
2022-08-24T08:35:15.408Z,1.63
2022-08-24T08:37:43.054Z,1.40
2022-08-24T08:40:19.699Z,2.58
2022-08-24T08:43:01.348Z,1.30
2022-08-24T08:45:33.262Z,2.53
2022-08-24T08:48:27.647Z,1.60
2022-08-24T08:51:11.808Z,1.30
2022-08-24T08:54:00.731Z,1.83
2022-08-24T08:56:30.236Z,1.33
2022-08-24T08:59:03.561Z,2.47
2022-08-24T09:01:46.461Z,1.42
2022-08-24T09:04:21.905Z,1.10
2022-08-24T09:07:00.189Z,1.00
2022-08-24T09:09:41.998Z,2.58
2022-08-24T09:12:14.460Z,1.13
2022-08-24T09:14:53.423Z,2.05
2022-08-24T09:17:29.317Z,0.85
2022-08-24T09:20:06.482Z,1.48
2022-08-24T09:22:39.099Z,1.58
2022-08-24T09:25:11.277Z,1.00
2022-08-24T09:27:43.592Z,0.80
2022-08-24T09:30:14.915Z,0.82
2022-08-24T09:32:56.850Z,0.80
2022-08-24T09:35:27.451Z,0.80
2022-08-24T09:38:00.717Z,1.77
2022-08-24T09:40:34.522Z,1.02
2022-08-24T09:43:24.284Z,1.13
2022-08-24T09:46:07.427Z,0.90
2022-08-24T09:48:44.546Z,2.90
2022-08-24T09:51:37.668Z,0.90
2022-08-24T09:54:29.902Z,0.95
2022-08-24T09:57:12.735Z,1.10
2022-08-24T09:59:58.295Z,1.20
2022-08-24T10:02:38.042Z,1.02
2022-08-24T10:05:11.674Z,1.35
2022-08-24T10:07:43.555Z,1.85
2022-08-24T10:10:14.880Z,1.05
2022-08-24T10:12:54.146Z,3.10
2022-08-24T10:15:27.943Z,1.40
2022-08-24T10:18:05.824Z,1.58
2022-08-24T10:20:42.949Z,1.30
2022-08-24T10:23:26.988Z,1.75
2022-08-24T10:25:57.700Z,1.65
2022-08-24T10:28:36.674Z,2.00
2022-08-24T10:31:09.735Z,1.40
2022-08-24T10:33:45.870Z,1.15
2022-08-24T10:36:38.623Z,2.75
2022-08-24T10:39:31.218Z,1.60
2022-08-24T10:42:10.612Z,1.98
2022-08-24T10:44:48.695Z,2.05
2022-08-24T10:47:21.725Z,2.40
2022-08-24T10:50:04.200Z,1.88
2022-08-24T10:52:49.949Z,2.38
2022-08-24T10:55:20.953Z,2.00
2022-08-24T10:57:52.739Z,1.67
2022-08-24T11:00:23.054Z,1.90
2022-08-24T11:02:51.582Z,1.98
2022-08-24T11:05:31.373Z,2.50
2022-08-24T11:08:00.120Z,1.60
2022-08-24T11:10:29.155Z,2.00
2022-08-24T11:12:56.711Z,2.22
2022-08-24T11:15:27.699Z,1.45
2022-08-24T11:17:56.550Z,2.55
2022-08-24T11:20:28.362Z,1.75
2022-08-24T11:23:01.109Z,1.50
2022-08-24T11:25:32.084Z,2.42
2022-08-24T11:28:04.205Z,1.67
2022-08-24T11:30:32.107Z,1.80
2022-08-24T11:33:01.206Z,1.60
2022-08-24T11:35:36.911Z,1.67
2022-08-24T11:38:10.692Z,1.85
2022-08-24T11:40:40.707Z,1.60
2022-08-24T11:43:17.345Z,2.35
2022-08-24T11:45:48.368Z,1.40
2022-08-24T11:48:19.611Z,1.50
2022-08-24T11:50:53.727Z,1.80
2022-08-24T11:53:25.326Z,1.52
2022-08-24T11:56:00.352Z,1.52
2022-08-24T11:58:35.631Z,1.20
2022-08-24T12:01:06.720Z,1.58
2022-08-24T12:03:45.913Z,1.75
2022-08-24T12:06:20.585Z,2.42
2022-08-24T12:08:51.820Z,1.85
2022-08-24T12:11:27.132Z,1.52
2022-08-24T12:13:57.733Z,1.60
2022-08-24T12:16:28.947Z,1.55
2022-08-24T12:18:59.186Z,1.73
2022-08-24T12:21:29.253Z,1.60
2022-08-24T12:24:00.051Z,1.63
2022-08-24T12:26:29.298Z,3.72
2022-08-24T12:29:01.216Z,1.30
2022-08-24T12:31:35.470Z,1.50
2022-08-24T12:34:09.428Z,1.90
2022-08-24T12:36:41.598Z,1.13
2022-08-24T12:39:11.788Z,2.67
2022-08-24T12:41:42.835Z,1.70
2022-08-24T12:44:12.715Z,1.67
2022-08-24T12:46:43.026Z,1.52
2022-08-24T12:49:14.684Z,1.52
2022-08-24T12:51:51.843Z,1.23
2022-08-24T12:54:34.104Z,1.50
2022-08-24T12:57:15.788Z,3.45
2022-08-24T12:59:46.626Z,1.50
2022-08-24T13:02:27.718Z,1.42
2022-08-24T13:04:57.897Z,1.70
2022-08-24T13:07:31.382Z,1.65
2022-08-24T13:10:09.011Z,2.00
2022-08-24T13:13:03.563Z,2.15
2022-08-24T13:15:50.021Z,1.60
2022-08-24T13:18:50.884Z,1.52
2022-08-24T13:21:37.306Z,2.28
2022-08-24T13:24:31.969Z,7.63
2022-08-24T13:27:20.912Z,3.03
2022-08-24T13:29:51.247Z,1.75
2022-08-24T13:32:22.386Z,1.50
2022-08-24T13:34:51.198Z,1.48
2022-08-24T13:37:20.353Z,2.33
2022-08-24T13:39:56.930Z,5.57
2022-08-24T13:42:29.400Z,1.73
2022-08-24T13:45:07.368Z,2.33
2022-08-24T13:47:46.291Z,2.25
2022-08-24T13:50:27.393Z,4.18
2022-08-24T13:52:59.702Z,4.43
2022-08-24T13:55:33.700Z,1.55
2022-08-24T13:58:22.188Z,2.00
2022-08-24T14:00:53.249Z,2.17
2022-08-24T14:03:26.606Z,2.38
2022-08-24T14:05:57.685Z,2.40
2022-08-24T14:08:33.846Z,3.20
2022-08-24T14:11:08.402Z,2.17
2022-08-24T14:13:42.300Z,2.55
2022-08-24T14:16:31.920Z,2.40
2022-08-24T14:19:04.797Z,2.75
2022-08-24T14:21:39.983Z,2.97
2022-08-24T14:24:10.239Z,2.42
2022-08-24T14:27:11.044Z,3.15
2022-08-24T14:29:42.836Z,2.63
2022-08-24T14:32:34.854Z,2.13
2022-08-24T14:35:31.440Z,2.50
2022-08-24T14:38:16.603Z,3.03
2022-08-24T14:40:54.258Z,3.10
2022-08-24T14:43:30.996Z,3.33
2022-08-24T14:46:01.342Z,2.55
2022-08-24T14:48:35.879Z,2.72
2022-08-24T14:51:09.763Z,2.95
2022-08-24T14:53:51.535Z,3.30
2022-08-24T14:56:25.124Z,2.95
2022-08-24T14:59:00.629Z,4.95
2022-08-24T15:01:46.224Z,3.00
2022-08-24T15:04:37.624Z,2.88
2022-08-24T15:07:24.066Z,2.70
2022-08-24T15:09:53.897Z,2.60
2022-08-24T15:12:28.475Z,2.88
2022-08-24T15:14:59.645Z,3.15
2022-08-24T15:17:29.484Z,3.50
2022-08-24T15:20:01.044Z,3.22
2022-08-24T15:22:40.316Z,3.47
2022-08-24T15:25:16.308Z,3.33
2022-08-24T15:27:49.829Z,4.82
2022-08-24T15:30:22.487Z,3.78
2022-08-24T15:32:53.082Z,4.13
2022-08-24T15:35:25.441Z,3.10
2022-08-24T15:37:53.291Z,3.97
2022-08-24T15:40:26.977Z,6.65
2022-08-24T15:42:55.255Z,5.40
2022-08-24T15:45:23.034Z,8.32
2022-08-24T15:47:52.014Z,3.80
2022-08-24T15:50:25.119Z,3.70
2022-08-24T15:52:55.643Z,3.08
2022-08-24T15:55:32.968Z,2.90
2022-08-24T15:58:12.890Z,3.55
2022-08-24T16:00:57.978Z,4.20
2022-08-24T16:03:27.023Z,4.30
2022-08-24T16:05:56.764Z,3.88
2022-08-24T16:08:24.686Z,7.80
2022-08-24T16:10:54.904Z,4.38
2022-08-24T16:13:26.966Z,3.45
2022-08-24T16:15:58.056Z,3.28
2022-08-24T16:18:26.751Z,2.88
2022-08-24T16:20:55.510Z,4.28
2022-08-24T16:23:24.677Z,5.15
2022-08-24T16:26:13.802Z,8.13
2022-08-24T16:28:41.301Z,3.72
2022-08-24T16:31:09.047Z,3.17
2022-08-24T16:33:43.068Z,3.05
2022-08-24T16:36:12.977Z,3.83
2022-08-24T16:38:46.172Z,2.95
2022-08-24T16:41:17.108Z,2.85
2022-08-24T16:43:45.801Z,3.00
2022-08-24T16:46:14.440Z,3.47
2022-08-24T16:48:42.039Z,6.72
2022-08-24T16:51:09.465Z,6.43
2022-08-24T16:53:37.000Z,4.03
2022-08-24T16:56:07.539Z,4.15
2022-08-24T16:58:37.230Z,3.63
2022-08-24T17:01:05.516Z,3.75
2022-08-24T17:03:33.871Z,5.07
2022-08-24T17:06:01.569Z,4.13
2022-08-24T17:08:29.383Z,4.43
2022-08-24T17:10:56.978Z,3.72
2022-08-24T17:13:48.222Z,4.97
2022-08-24T17:16:14.608Z,5.07
2022-08-24T17:18:42.701Z,4.18
2022-08-24T17:21:10.281Z,5.28
2022-08-24T17:23:38.029Z,4.03
2022-08-24T17:26:09.535Z,5.47
2022-08-24T17:28:43.283Z,11.65
2022-08-24T17:31:12.420Z,7.35
2022-08-24T17:33:42.320Z,9.68
2022-08-24T17:36:11.480Z,8.60
2022-08-24T17:38:54.457Z,6.55
2022-08-24T17:41:23.634Z,7.43
2022-08-24T17:43:51.156Z,4.53
2022-08-24T17:46:19.821Z,4.85
2022-08-24T17:48:49.872Z,6.85
2022-08-24T17:51:17.664Z,7.30
2022-08-24T17:53:45.217Z,5.38
2022-08-24T17:56:14.260Z,6.68
2022-08-24T17:58:56.038Z,4.80
2022-08-24T18:01:24.163Z,7.93
2022-08-24T18:03:53.210Z,6.65
2022-08-24T18:06:23.277Z,5.82
2022-08-24T18:08:53.691Z,9.88
2022-08-24T18:11:25.652Z,5.90
2022-08-24T18:13:54.301Z,15.38
2022-08-24T18:16:23.204Z,13.98
2022-08-24T18:18:51.844Z,5.35
2022-08-24T18:21:21.147Z,5.50
2022-08-24T18:23:48.928Z,6.43
2022-08-24T18:26:16.820Z,5.00
2022-08-24T18:28:44.464Z,7.85
2022-08-24T18:31:12.671Z,12.25
2022-08-24T18:33:42.967Z,8.35
2022-08-24T18:36:10.521Z,5.38
2022-08-24T18:38:40.487Z,7.95
2022-08-24T18:41:08.100Z,8.18
2022-08-24T18:43:35.786Z,5.90
2022-08-24T18:46:07.041Z,4.82
2022-08-24T18:48:34.846Z,4.95
2022-08-24T18:51:02.579Z,5.07
2022-08-24T18:53:30.324Z,4.72
2022-08-24T18:56:03.551Z,6.50
2022-08-24T18:58:34.311Z,6.15
2022-08-24T19:01:01.981Z,9.45
2022-08-24T19:03:34.396Z,5.22
2022-08-24T19:06:02.104Z,5.30
2022-08-24T19:08:29.781Z,8.60
2022-08-24T19:10:57.534Z,10.77
2022-08-24T19:13:26.549Z,16.50
2022-08-24T19:15:54.133Z,5.50
2022-08-24T19:18:23.587Z,11.95
2022-08-24T19:20:52.455Z,5.72
2022-08-24T19:23:21.465Z,15.70
2022-08-24T19:25:49.673Z,11.85
2022-08-24T19:28:17.364Z,7.82
2022-08-24T19:30:46.897Z,4.88
2022-08-24T19:33:16.418Z,5.68
2022-08-24T19:35:44.087Z,17.10
2022-08-24T19:38:11.668Z,18.00
2022-08-24T19:40:39.368Z,12.55
2022-08-24T19:43:15.810Z,7.95
2022-08-24T19:46:01.451Z,9.73
2022-08-24T19:48:31.427Z,6.32
2022-08-24T19:50:59.966Z,5.93
2022-08-24T19:53:28.679Z,6.65
2022-08-24T19:55:56.406Z,6.88
2022-08-24T19:58:25.213Z,9.57
2022-08-24T20:00:57.211Z,8.55
2022-08-24T20:03:24.964Z,7.13
2022-08-24T20:05:54.023Z,6.40
2022-08-24T20:08:21.941Z,7.68
2022-08-24T20:10:49.977Z,8.85
2022-08-24T20:13:17.600Z,11.95
2022-08-24T20:15:45.650Z,9.80
2022-08-24T20:18:13.750Z,8.20
2022-08-24T20:20:41.454Z,9.82
2022-08-24T20:23:10.419Z,11.18
2022-08-24T20:25:38.703Z,9.20
2022-08-24T20:30:56.258Z,10.55
2022-08-24T20:33:24.873Z,10.15
2022-08-24T20:35:52.521Z,10.85
2022-08-24T20:38:22.048Z,10.20
2022-08-24T20:40:50.277Z,9.63
2022-08-24T20:43:18.089Z,10.18
2022-08-24T20:45:45.861Z,11.32
2022-08-24T20:48:14.238Z,10.32
2022-08-24T20:50:43.361Z,9.85
2022-08-24T20:53:11.532Z,9.77
2022-08-24T20:55:41.646Z,7.18
2022-08-24T20:58:09.418Z,7.78
2022-08-24T21:00:37.923Z,7.47
2022-08-24T21:03:05.808Z,7.65
2022-08-24T21:05:33.682Z,7.53
2022-08-24T21:08:01.264Z,7.25
2022-08-24T21:10:28.912Z,6.57
2022-08-24T21:12:58.065Z,6.85
2022-08-24T21:15:25.635Z,7.18
2022-08-24T21:17:53.935Z,8.02
2022-08-24T21:20:24.209Z,7.18
2022-08-24T21:22:51.800Z,7.30
2022-08-24T21:25:19.526Z,7.15
2022-08-24T21:27:48.846Z,7.80
2022-08-24T21:30:19.303Z,8.52
2022-08-24T21:33:04.913Z,7.53
2022-08-24T21:35:32.877Z,7.22
2022-08-24T21:38:00.871Z,7.50
2022-08-24T21:40:28.797Z,9.32
2022-08-24T21:42:56.493Z,7.15
2022-08-24T21:45:25.531Z,7.88
2022-08-24T21:47:53.992Z,7.90
2022-08-24T21:50:25.518Z,7.63
2022-08-24T21:52:54.417Z,7.32
2022-08-24T21:55:22.951Z,7.78
2022-08-24T21:57:50.900Z,7.10
2022-08-24T22:00:20.285Z,7.60
2022-08-24T22:02:49.212Z,6.60
2022-08-24T22:05:17.512Z,7.43
2022-08-24T22:07:45.536Z,8.80
2022-08-24T22:10:13.787Z,8.50
2022-08-24T22:12:42.438Z,6.82
2022-08-24T22:15:11.538Z,8.45
2022-08-24T22:17:39.340Z,7.28
2022-08-24T22:20:10.379Z,8.05
2022-08-24T22:22:49.284Z,7.72
2022-08-24T22:25:16.947Z,8.02
2022-08-24T22:27:45.715Z,8.60
2022-08-24T22:30:14.841Z,7.80
2022-08-24T22:32:42.419Z,8.00
2022-08-24T22:35:11.960Z,7.38
2022-08-24T22:37:39.505Z,7.88
2022-08-24T22:40:12.267Z,9.50
2022-08-24T22:42:40.604Z,7.22
2022-08-24T22:45:09.290Z,8.02
2022-08-24T22:47:37.139Z,9.68
2022-08-24T22:50:06.072Z,8.15
2022-08-24T22:52:34.968Z,8.32
2022-08-24T22:55:03.071Z,12.13
2022-08-24T22:57:30.797Z,7.70
2022-08-24T22:59:58.489Z,8.13
2022-08-24T23:02:26.066Z,8.38
2022-08-24T23:04:53.972Z,10.23
2022-08-24T23:07:21.548Z,8.23
2022-08-24T23:09:50.546Z,9.23
2022-08-24T23:12:19.196Z,8.40
2022-08-24T23:14:47.548Z,8.60
2022-08-24T23:17:15.194Z,9.43
2022-08-24T23:20:00.174Z,8.32
2022-08-24T23:22:28.474Z,9.10
2022-08-24T23:24:57.749Z,8.85
2022-08-24T23:27:26.657Z,9.52
2022-08-24T23:30:00.637Z,8.45
2022-08-24T23:32:28.337Z,9.15
2022-08-24T23:34:56.711Z,9.75
2022-08-24T23:37:24.737Z,9.70
2022-08-24T23:39:52.411Z,10.25
2022-08-24T23:42:21.367Z,8.88
2022-08-24T23:44:49.026Z,11.27
2022-08-24T23:47:16.560Z,12.63
2022-08-24T23:49:44.676Z,10.38
2022-08-24T23:52:25.899Z,9.40
2022-08-24T23:54:56.435Z,8.23
2022-08-24T23:57:45.410Z,9.82
